createdAt,value
2019-03-01T00:01:47.415Z,58.77
2019-03-01T00:07:40.437Z,59.42
2019-03-01T00:13:15.851Z,60.62
2019-03-01T00:19:02.702Z,61.29
2019-03-01T00:24:43.343Z,65.24
2019-03-01T00:30:36.984Z,66.16
2019-03-01T00:36:08.580Z,66.84
2019-03-01T00:41:34.112Z,68.56
2019-03-01T00:46:57.674Z,70.57
2019-03-01T00:52:03.203Z,70.82
2019-03-01T00:57:18.347Z,73.00
2019-03-01T01:02:24.226Z,72.30
2019-03-01T01:07:29.826Z,71.90
2019-03-01T01:12:35.273Z,71.90
2019-03-01T01:17:41.124Z,73.18
2019-03-01T01:22:47.172Z,71.82
2019-03-01T01:27:54.680Z,72.83
2019-03-01T01:33:00.283Z,72.28
2019-03-01T01:38:09.498Z,71.22
2019-03-01T01:43:14.962Z,71.02
2019-03-01T01:48:20.455Z,72.39
2019-03-01T01:53:25.979Z,71.90
2019-03-01T01:58:31.437Z,72.03
2019-03-01T02:03:37.264Z,73.46
2019-03-01T02:08:42.899Z,71.97
2019-03-01T02:13:48.505Z,70.97
2019-03-01T02:18:57.778Z,70.97
2019-03-01T02:24:01.380Z,70.51
2019-03-01T02:29:06.874Z,70.10
2019-03-01T02:34:12.451Z,70.74
2019-03-01T02:39:18.181Z,70.25
2019-03-01T02:44:25.585Z,71.12
2019-03-01T02:49:31.175Z,70.68
2019-03-01T02:54:36.606Z,71.14
2019-03-01T02:59:42.189Z,71.48
2019-03-01T03:05:07.757Z,70.44
2019-03-01T03:10:17.066Z,70.73
2019-03-01T03:15:30.452Z,70.80
2019-03-01T03:20:36.104Z,70.83
2019-03-01T03:25:41.769Z,71.10
2019-03-01T03:30:47.616Z,70.97
2019-03-01T03:35:53.198Z,71.39
2019-03-01T03:41:01.890Z,71.54
2019-03-01T03:46:07.552Z,71.89
2019-03-01T03:51:13.385Z,71.56
2019-03-01T03:56:20.800Z,71.79
2019-03-01T04:01:27.942Z,72.03
2019-03-01T04:06:33.635Z,70.42
2019-03-01T04:11:39.667Z,70.17
2019-03-01T04:16:45.448Z,69.93
2019-03-01T04:21:52.093Z,69.89
2019-03-01T04:26:57.846Z,68.94
2019-03-01T04:32:03.918Z,68.45
2019-03-01T04:37:09.409Z,69.32
2019-03-01T04:42:14.927Z,68.04
2019-03-01T04:47:20.522Z,67.70
2019-03-01T04:52:37.641Z,67.31
2019-03-01T04:57:43.561Z,66.77
2019-03-01T05:02:49.923Z,67.32
2019-03-01T05:07:57.609Z,66.78
2019-03-01T05:13:05.355Z,66.87
2019-03-01T05:18:10.893Z,66.22
2019-03-01T05:23:16.435Z,66.79
2019-03-01T05:28:22.412Z,66.24
2019-03-01T05:33:28.725Z,66.19
2019-03-01T05:38:34.248Z,65.93
2019-03-01T05:43:39.777Z,65.70
2019-03-01T05:48:45.285Z,66.49
2019-03-01T05:53:53.766Z,65.87
2019-03-01T05:59:14.478Z,65.87
2019-03-01T06:04:44.914Z,66.44
2019-03-01T06:10:40.397Z,65.78
2019-03-01T06:16:07.070Z,65.58
2019-03-01T06:21:36.516Z,66.13
2019-03-01T06:27:00.545Z,66.23
2019-03-01T06:32:58.188Z,66.09
2019-03-01T06:39:11.560Z,66.37
2019-03-01T06:44:49.275Z,66.27
2019-03-01T06:50:06.641Z,66.02
2019-03-01T06:55:30.293Z,65.44
2019-03-01T07:00:47.291Z,65.49
2019-03-01T07:05:48.189Z,66.07
2019-03-01T07:10:53.679Z,66.58
2019-03-01T07:15:59.207Z,65.94
2019-03-01T07:21:07.062Z,66.24
2019-03-01T07:26:14.751Z,65.63
2019-03-01T07:31:20.406Z,66.11
2019-03-01T07:36:25.956Z,66.06
2019-03-01T07:41:31.435Z,65.79
2019-03-01T07:46:37.017Z,65.73
2019-03-01T07:51:43.208Z,66.17
2019-03-01T07:56:48.695Z,66.11
2019-03-01T08:01:55.932Z,66.33
2019-03-01T08:07:01.500Z,66.61
2019-03-01T08:12:08.158Z,67.13
2019-03-01T08:17:13.824Z,67.33
2019-03-01T08:22:20.790Z,66.35
2019-03-01T08:27:28.231Z,67.23
2019-03-01T08:32:33.759Z,66.43
2019-03-01T08:37:39.372Z,67.04
2019-03-01T08:42:45.671Z,66.16
2019-03-01T08:47:55.526Z,65.46
2019-03-01T08:52:59.544Z,65.29
2019-03-01T08:58:09.367Z,64.76
2019-03-01T09:03:23.167Z,65.75
2019-03-01T09:08:28.915Z,65.14
2019-03-01T09:13:36.133Z,64.91
2019-03-01T09:18:41.862Z,65.05
2019-03-01T09:24:06.159Z,65.69
2019-03-01T09:29:12.986Z,65.62
2019-03-01T09:34:19.409Z,67.39
2019-03-01T09:39:24.981Z,66.87
2019-03-01T09:44:34.600Z,66.76
2019-03-01T09:49:43.926Z,66.39
2019-03-01T09:54:49.522Z,66.27
2019-03-01T10:05:34.521Z,66.05
2019-03-01T10:10:40.241Z,66.04
2019-03-01T10:15:46.127Z,65.47
2019-03-01T10:20:51.679Z,65.11
2019-03-01T10:25:57.190Z,65.14
2019-03-01T10:31:02.979Z,64.41
2019-03-01T10:36:09.973Z,64.61
2019-03-01T10:41:18.386Z,66.17
2019-03-01T10:46:24.065Z,65.67
2019-03-01T10:51:30.048Z,65.95
2019-03-01T10:56:35.713Z,66.50
2019-03-01T11:01:44.705Z,66.21
2019-03-01T11:06:50.391Z,66.38
2019-03-01T11:11:56.080Z,65.90
2019-03-01T11:17:03.777Z,64.86
2019-03-01T11:22:09.919Z,65.25
2019-03-01T11:27:15.725Z,64.94
2019-03-01T11:32:23.328Z,64.62
2019-03-01T11:37:28.893Z,64.26
2019-03-01T11:42:37.656Z,64.63
2019-03-01T11:47:50.163Z,63.61
2019-03-01T11:52:55.984Z,62.33
2019-03-01T11:58:01.640Z,63.43
2019-03-01T12:03:08.891Z,64.17
2019-03-01T12:08:14.438Z,64.81
2019-03-01T12:13:21.467Z,63.97
2019-03-01T12:18:27.229Z,62.50
2019-03-01T12:23:35.026Z,63.67
2019-03-01T12:28:40.515Z,61.78
2019-03-01T12:33:46.375Z,62.74
2019-03-01T12:38:52.004Z,62.18
2019-03-01T12:44:00.281Z,63.81
2019-03-01T12:49:07.347Z,62.58
2019-03-01T12:54:14.074Z,61.96
2019-03-01T12:59:20.068Z,61.42
2019-03-01T13:04:27.356Z,62.55
2019-03-01T13:09:32.843Z,62.08
2019-03-01T13:14:40.332Z,62.27
2019-03-01T13:19:45.748Z,61.07
2019-03-01T13:24:53.467Z,61.63
2019-03-01T13:29:59.811Z,63.95
2019-03-01T13:35:07.756Z,70.90
2019-03-01T13:40:14.502Z,71.90
2019-03-01T13:45:20.118Z,71.09
2019-03-01T13:50:26.241Z,71.58
2019-03-01T13:55:32.166Z,70.38
2019-03-01T14:00:41.148Z,69.72
2019-03-01T14:05:47.271Z,68.51
2019-03-01T14:10:54.524Z,66.67
2019-03-01T14:16:05.906Z,66.97
2019-03-01T14:21:11.958Z,67.36
2019-03-01T14:26:23.529Z,68.74
2019-03-01T14:31:32.632Z,69.33
2019-03-01T14:36:43.967Z,69.20
2019-03-01T14:41:52.735Z,70.00
2019-03-01T14:47:07.101Z,70.10
2019-03-01T14:52:15.153Z,69.49
2019-03-01T14:57:26.263Z,71.46
2019-03-01T15:03:06.010Z,72.61
2019-03-01T15:08:17.111Z,72.19
2019-03-01T15:13:31.444Z,71.41
2019-03-01T15:18:37.338Z,71.40
2019-03-01T15:23:42.969Z,72.63
2019-03-01T15:28:55.305Z,71.87
2019-03-01T15:34:01.610Z,71.09
2019-03-01T15:39:20.017Z,70.86
2019-03-01T15:44:30.229Z,72.82
2019-03-01T15:49:36.493Z,72.93
2019-03-01T15:54:51.424Z,72.97
2019-03-01T15:59:59.647Z,72.76
2019-03-01T16:05:09.925Z,74.38
2019-03-01T16:10:15.791Z,75.94
2019-03-01T16:15:26.755Z,76.82
2019-03-01T16:20:36.766Z,76.58
2019-03-01T16:25:44.399Z,76.23
2019-03-01T16:30:53.240Z,75.09
2019-03-01T16:35:58.456Z,75.66
2019-03-01T16:41:08.470Z,76.45
2019-03-01T16:46:18.091Z,74.69
2019-03-01T16:51:25.232Z,74.94
2019-03-01T16:56:38.449Z,75.89
2019-03-01T17:01:47.043Z,74.81
2019-03-01T17:06:52.781Z,75.63
2019-03-01T17:12:03.036Z,74.94
2019-03-01T17:17:09.030Z,74.71
2019-03-01T17:22:15.916Z,74.95
2019-03-01T17:27:26.950Z,74.12
2019-03-01T17:32:36.952Z,74.18
2019-03-01T17:37:42.572Z,74.32
2019-03-01T17:43:01.353Z,73.51
2019-03-01T17:48:11.980Z,73.75
2019-03-01T17:53:31.611Z,74.10
2019-03-01T17:58:39.717Z,75.10
2019-03-01T18:03:50.696Z,75.12
2019-03-01T18:08:59.395Z,74.71
2019-03-01T18:14:12.648Z,75.95
2019-03-01T18:19:26.617Z,75.95
2019-03-01T18:24:38.622Z,75.81
2019-03-01T18:29:49.980Z,75.99
2019-03-01T18:34:57.234Z,74.50
2019-03-01T18:40:09.932Z,74.01
2019-03-01T18:45:21.461Z,73.13
2019-03-01T18:50:33.354Z,72.16
2019-03-01T18:55:49.678Z,71.80
2019-03-01T19:01:00.047Z,70.81
2019-03-01T19:06:17.141Z,70.22
2019-03-01T19:11:23.434Z,71.09
2019-03-01T19:16:48.421Z,70.61
2019-03-01T19:21:58.281Z,70.61
2019-03-01T19:27:15.565Z,69.44
2019-03-01T19:32:26.590Z,69.19
2019-03-01T19:37:38.363Z,67.99
2019-03-01T19:42:54.748Z,67.00
2019-03-01T19:48:05.906Z,69.03
2019-03-01T19:53:17.297Z,67.35
2019-03-01T19:58:28.696Z,68.34
2019-03-01T20:03:48.549Z,68.49
2019-03-01T20:09:01.680Z,68.96
2019-03-01T20:14:16.864Z,70.74
2019-03-01T20:19:34.528Z,70.16
2019-03-01T20:24:48.097Z,67.92
2019-03-01T20:30:00.794Z,69.44
2019-03-01T20:35:16.007Z,69.68
2019-03-01T20:40:30.476Z,69.89
2019-03-01T20:45:45.179Z,67.96
2019-03-01T20:51:06.953Z,67.19
2019-03-01T20:56:13.845Z,67.19
2019-03-01T21:01:23.395Z,66.04
2019-03-01T21:06:43.323Z,66.31
2019-03-01T21:11:50.796Z,67.89
2019-03-01T21:17:13.050Z,67.53
2019-03-01T21:22:22.350Z,66.93
2019-03-01T21:27:38.209Z,66.43
2019-03-01T21:33:04.639Z,65.37
2019-03-01T21:38:17.047Z,66.88
2019-03-01T21:43:30.657Z,67.88
2019-03-01T21:48:48.650Z,68.51
2019-03-01T21:54:07.932Z,68.51
2019-03-01T21:59:23.906Z,69.60
2019-03-01T22:04:39.121Z,70.02
2019-03-01T22:09:46.603Z,70.02
2019-03-01T22:14:55.764Z,69.71
2019-03-01T22:20:08.879Z,67.95
2019-03-01T22:25:15.333Z,67.29
2019-03-01T22:30:43.791Z,67.76
2019-03-01T22:36:00.607Z,68.18
2019-03-01T22:41:06.234Z,69.25
2019-03-01T22:46:16.559Z,69.08
2019-03-01T22:51:26.921Z,66.38
2019-03-01T22:56:38.131Z,66.38
2019-03-01T23:01:48.908Z,65.95
2019-03-01T23:06:58.765Z,64.82
2019-03-01T23:12:10.432Z,65.87
2019-03-01T23:17:22.720Z,66.01
2019-03-01T23:22:34.078Z,65.86
2019-03-01T23:27:50.471Z,64.24
2019-03-01T23:32:58.172Z,64.55
2019-03-01T23:38:15.072Z,64.55
2019-03-01T23:43:21.448Z,63.17
2019-03-01T23:48:53.635Z,62.80
2019-03-01T23:54:01.487Z,62.80
2019-03-01T23:59:08.737Z,63.72
